Airfield :
LOGIN :

Register | Disclaimer

   EN    FR    IT 

 










Legend :    VFR   Marginal VFR   IFR   Intensive IFR   Very Intensive IFR
Visi :
Ceiling :
>= 8 km
>= 3000ft
5 to 8 km
1000 to 3000 ft
1500m to 5 km
500 to 1000 ft
800 to 1500m
200 to 500 ft
< 800m
< 200 ft
Symbols :   Thunderstorms  Fog  Heavy snow  Heavy precipitations  Wind > 20 kt
SIGMETs :     Misc.  Thunderstorms  Icing  Turbulence  Mountain Waves  Volcanic Ashes






- Airport Elevation : 42 ft
- IATA code : LMO


EGQS - Lossiemouth

CURRENT METAR :
  • 170120Z AUTO 31014KT 9999 -DZ OVC012/// 11/10 Q1002

EXPIRED METARs :
  • 170050Z 30008KT 9999 FEW009 BKN016 11/10 Q1002 RMK WHT
  • 170020Z AUTO 32010KT 5000 -RA FEW021/// BKN049/// 11/09 Q1002
  • 162350Z 33009KT 9999 -RA FEW011 BKN055 11/10 Q1002 RMK BLU
  • 162320Z AUTO 33006KT 9999 // OVC011/// 11/10 Q1002
  • 162250Z 01009KT 9999 BKN011 11/10 Q1002 RMK GRN
  • 162220Z AUTO 36008KT 9999 OVC013/// 11/10 Q1002
  • 162150Z 01009KT 9999 FEW007 BKN080 11/10 Q1002 RMK BLU
  • 162120Z AUTO 01009KT 9999 OVC035/// 11/10 Q1002
  • 162050Z 02009KT 9999 FEW006 BKN045 11/10 Q1001 RMK BLU

TAF TAF EGQS
Valid from the 17 at 00:00 until the 17 at 18:00 UTC


162238Z 1700/1718 36008KT 9999 BKN025
TEMPO 1700/1703 SCT008 BKN020
PROB30
TEMPO 1700/1703 3000 RADZ SCT003 BKN005
TEMPO 1703/1715 SCT020
PROB30
TEMPO 1703/1710 5000 SHRA SCT010



MET'MAP, your aeronautical weather chart ! - Copyright ORBIFLY December 2007 - Disclaimer

ORBIFLY MET'MAP TEAM :

Programming & Development : Alexandra Zaïnal
Original concept : Baudouin d'Aumeries
Technical & hardware support : Manuel Goepfert
Assistance : Marc-Olivier Méhu




SOURCES & CREDITS :

   NOAA